Kurenai — 7JGY — position and weather

sailwx.info

Track history (hours):
 
Tides and Currents Weather Stations Pressure Air Temp Water Temp Dewpoint Dewpoint Depression Visibility Wind Speed Wind Dir Waves Ship Positions

Kurenai

Last reported at 2018-Jan-27 05:25 UTC. Time now 2018-Feb-23 06:53 UTC.
Position S 27°45' E 153°54'.
Warning: this ship's position is 27 days out of date.

Length 228 m; draft 13.3 m.

Type: Cargo ship. MMSI: 432744000.

Date/timePositionNaut miles runAvg speedWind from/ knotsBaromVisibWave heightAir tempDewpointWater temp
2018-Jan-27 05:25S 27°45' E 153°54'410.2
2018-Jan-27 05:00S 27°49' E 153°53'510.1
2018-Jan-27 04:30S 27°54' E 153°53'510.0
2018-Jan-27 04:00S 27°59' E 153°52'510.1
2018-Jan-27 03:30S 28°04' E 153°52'510.1
2018-Jan-27 03:00S 28°09' E 153°52'5 9.8
2018-Jan-27 02:30S 28°14' E 153°52'5 9.7
2018-Jan-27 02:00S 28°19' E 153°51'5 9.8
2018-Jan-27 01:30S 28°23' E 153°51'5 9.7
2018-Jan-27 01:00S 28°28' E 153°50'5 9.7
2018-Jan-27 00:30S 28°33' E 153°50'5 9.7
2018-Jan-27 00:00S 28°38' E 153°49'6 9.4
2018-Jan-26 23:23S 28°44' E 153°48'22510.2
2018-Jan-26 01:16S 32°23' E 152°46'310.6
2018-Jan-26 01:00S 32°25' E 152°45'610.5
2018-Jan-26 00:28S 32°30' E 152°41'510.7
2018-Jan-26 00:00S 32°34' E 152°38'510.5
2018-Jan-25 23:30S 32°38' E 152°34'510.5
2018-Jan-25 23:00S 32°42' E 152°30'510.5
2018-Jan-25 22:30S 32°47' E 152°27'510.3
2018-Jan-25 22:00S 32°50' E 152°23'510.7
2018-Jan-25 21:30S 32°53' E 152°17'510.8
2018-Jan-25 21:00S 32°55' E 152°11'510.9
2018-Jan-25 20:30S 32°56' E 152°04'510.7
2018-Jan-25 20:00S 32°57' E 151°58'510.6
2018-Jan-25 19:30S 32°56' E 151°52'3 6.9
2018-Jan-25 19:00S 32°55' E 151°48'2 3.4
2018-Jan-25 18:30S 32°54' E 151°46'1 2.9
2018-Jan-25 18:00S 32°53' E 151°45'0 0.0
2018-Jan-25 17:29S 32°53' E 151°45'0 0.0
2018-Jan-25 16:59S 32°53' E 151°45'0 0.0
2018-Jan-25 15:59S 32°53' E 151°45'0 0.0
2018-Jan-25 15:23S 32°53' E 151°45'0 0.0
2018-Jan-25 14:59S 32°53' E 151°45'0 0.0
2018-Jan-25 14:29S 32°53' E 151°45'0 0.0
2018-Jan-25 13:59S 32°53' E 151°45'0 0.0
2018-Jan-25 12:47S 32°53' E 151°45'0 0.0
2018-Jan-25 07:41S 32°53' E 151°45'0 0.0
2018-Jan-25 07:29S 32°53' E 151°45'0 0.0
2018-Jan-25 06:59S 32°53' E 151°45'0 0.0
2018-Jan-25 06:26S 32°53' E 151°45'0 0.0
2018-Jan-25 05:59S 32°53' E 151°45'0 0.0
2018-Jan-25 05:29S 32°53' E 151°45'0 0.0
2018-Jan-25 04:59S 32°53' E 151°45'0 0.0
2018-Jan-25 04:23S 32°53' E 151°45'0 0.0
2018-Jan-25 03:56S 32°53' E 151°45'0 0.0
2018-Jan-25 03:29S 32°53' E 151°45'0 0.0
2018-Jan-25 02:59S 32°53' E 151°45'0 0.0
2018-Jan-25 02:29S 32°53' E 151°45'0 0.0
2018-Jan-25 01:59S 32°53' E 151°45'0 0.0
2018-Jan-25 01:29S 32°53' E 151°45'0 0.0
2018-Jan-25 00:47S 32°53' E 151°45'0 0.0
2018-Jan-25 00:29S 32°53' E 151°45'0 0.0
2018-Jan-24 23:59S 32°53' E 151°45'0 0.0
2018-Jan-24 23:30S 32°53' E 151°45'1 2.1
2018-Jan-24 23:00S 32°54' E 151°46'2 4.0
2018-Jan-24 22:24S 32°55' E 151°49'1 3.5
2018-Jan-24 22:01S 32°55' E 151°50'4 8.9
2018-Jan-24 21:30S 32°59' E 151°53'2 3.9
2018-Jan-24 21:00S 33°01' E 151°53'3 6.1
2018-Jan-24 20:30S 33°04' E 151°53'4 7.4
2018-Jan-24 20:00S 33°08' E 151°52'4 7.1
2018-Jan-24 19:30S 33°11' E 151°51'5 7.5
2018-Jan-24 18:51S 33°16' E 151°50'3 9.4
2018-Jan-24 18:30S 33°19' E 151°49'510.3
2018-Jan-24 18:00S 33°24' E 151°49'1 0.7
2018-Jan-24 17:15S 33°25' E 151°48'1 2.0
2018-Jan-24 16:59S 33°24' E 151°48'1 1.9
2018-Jan-24 16:22S 33°23' E 151°49'1 1.9
2018-Jan-24 15:55S 33°22' E 151°49'2 1.9
2018-Jan-24 14:59S 33°21' E 151°50'2 1.9
2018-Jan-24 14:11S 33°19' E 151°51'2 2.0
2018-Jan-24 13:13S 33°17' E 151°52'1 2.1
2018-Jan-24 12:59S 33°17' E 151°52'1 1.8
2018-Jan-24 12:28S 33°16' E 151°53'1 1.9
2018-Jan-24 11:57S 33°16' E 151°54'1 1.8
2018-Jan-24 11:21S 33°15' E 151°54'1 1.8
2018-Jan-24 10:38S 33°14' E 151°55'0 1.7
2018-Jan-24 10:29S 33°13' E 151°55'1 1.9
2018-Jan-24 10:00S 33°13' E 151°56'1 2.1
2018-Jan-24 09:30S 33°12' E 151°56'1 2.2
2018-Jan-24 09:00S 33°10' E 151°56'1 2.4
2018-Jan-24 08:30S 33°09' E 151°57'1 2.4
2018-Jan-24 08:00S 33°08' E 151°57'1 2.4
2018-Jan-24 07:30S 33°07' E 151°58'1 2.4
2018-Jan-24 07:00S 33°06' E 151°59'1 2.6
2018-Jan-24 06:30S 33°05' E 151°60'1 2.3
2018-Jan-24 06:00S 33°04' E 151°60'4 8.0
2018-Jan-24 05:30S 33°02' E 151°56'4 7.9
2018-Jan-24 05:00S 32°58' E 151°58'4 8.8
2018-Jan-24 04:30S 32°57' E 152°03'611.1
2018-Jan-24 04:00S 32°56' E 152°09'612.4
2018-Jan-24 03:30S 32°54' E 152°17'612.4
2018-Jan-24 03:01S 32°51' E 152°23'714.2
2018-Jan-24 02:31S 32°45' E 152°28'713.9
2018-Jan-24 02:01S 32°40' E 152°33'713.9
2018-Jan-24 01:30S 32°34' E 152°38'713.6
2018-Jan-24 01:00S 32°29' E 152°43'713.4
2018-Jan-24 00:30S 32°23' E 152°46'714.2
2018-Jan-24 00:00S 32°16' E 152°48'814.4
2018-Jan-23 23:27S 32°08' E 152°51'814.7
2018-Jan-23 22:55S 32°01' E 152°54'1515.0
2018-Jan-23 21:56S 31°47' E 152°60'19314.9
2018-Jan-23 08:56S 28°38' E 153°47'715.6
2018-Jan-23 08:30S 28°32' E 153°49'815.7
2018-Jan-23 08:00S 28°24' E 153°49'815.3
2018-Jan-23 07:30S 28°16' E 153°50'815.4
2018-Jan-23 07:00S 28°08' E 153°51'815.3
2018-Jan-23 06:30S 28°01' E 153°52'815.2
2018-Jan-23 06:00S 27°53' E 153°52'714.9
2018-Jan-23 05:30S 27°46' E 153°53'714.6
2018-Jan-23 05:00S 27°39' E 153°54'914.2
2018-Jan-23 04:24S 27°30' E 153°54'613.8
2018-Jan-23 03:56S 27°23' E 153°55'1013.5
2018-Jan-23 03:11S 27°13' E 153°56'613.9
2018-Jan-23 02:47S 27°08' E 153°56'1513.8
2018-Jan-23 01:44S 26°53' E 153°57'613.9
2018-Jan-23 01:18S 26°47' E 153°57'713.7
2018-Jan-23 00:48S 26°40' E 153°57'  
Track history (hours):
 
Tides and Currents Weather Stations Pressure Air Temp Water Temp Dewpoint Dewpoint Depression Visibility Wind Speed Wind Dir Waves Ship Positions

Kurenai

Last reported at 2018-Jan-27 05:25 UTC. Time now 2018-Feb-23 06:53 UTC.
Position S 27°45' E 153°54'.
Warning: this ship's position is 27 days out of date.

Length 228 m; draft 13.3 m.

Type: Cargo ship. MMSI: 432744000.

Date/timePositionNaut miles runAvg speedWind from/ knotsBaromVisibWave heightAir tempDewpointWater temp
2018-Jan-27 05:25S 27°45' E 153°54'410.2
2018-Jan-27 05:00S 27°49' E 153°53'510.1
2018-Jan-27 04:30S 27°54' E 153°53'510.0
2018-Jan-27 04:00S 27°59' E 153°52'510.1
2018-Jan-27 03:30S 28°04' E 153°52'510.1
2018-Jan-27 03:00S 28°09' E 153°52'5 9.8
2018-Jan-27 02:30S 28°14' E 153°52'5 9.7
2018-Jan-27 02:00S 28°19' E 153°51'5 9.8
2018-Jan-27 01:30S 28°23' E 153°51'5 9.7
2018-Jan-27 01:00S 28°28' E 153°50'5 9.7
2018-Jan-27 00:30S 28°33' E 153°50'5 9.7
2018-Jan-27 00:00S 28°38' E 153°49'6 9.4
2018-Jan-26 23:23S 28°44' E 153°48'22510.2
2018-Jan-26 01:16S 32°23' E 152°46'310.6
2018-Jan-26 01:00S 32°25' E 152°45'610.5
2018-Jan-26 00:28S 32°30' E 152°41'510.7
2018-Jan-26 00:00S 32°34' E 152°38'510.5
2018-Jan-25 23:30S 32°38' E 152°34'510.5
2018-Jan-25 23:00S 32°42' E 152°30'510.5
2018-Jan-25 22:30S 32°47' E 152°27'510.3
2018-Jan-25 22:00S 32°50' E 152°23'510.7
2018-Jan-25 21:30S 32°53' E 152°17'510.8
2018-Jan-25 21:00S 32°55' E 152°11'510.9
2018-Jan-25 20:30S 32°56' E 152°04'510.7
2018-Jan-25 20:00S 32°57' E 151°58'510.6
2018-Jan-25 19:30S 32°56' E 151°52'3 6.9
2018-Jan-25 19:00S 32°55' E 151°48'2 3.4
2018-Jan-25 18:30S 32°54' E 151°46'1 2.9
2018-Jan-25 18:00S 32°53' E 151°45'0 0.0
2018-Jan-25 17:29S 32°53' E 151°45'0 0.0
2018-Jan-25 16:59S 32°53' E 151°45'0 0.0
2018-Jan-25 15:59S 32°53' E 151°45'0 0.0
2018-Jan-25 15:23S 32°53' E 151°45'0 0.0
2018-Jan-25 14:59S 32°53' E 151°45'0 0.0
2018-Jan-25 14:29S 32°53' E 151°45'0 0.0
2018-Jan-25 13:59S 32°53' E 151°45'0 0.0
2018-Jan-25 12:47S 32°53' E 151°45'0 0.0
2018-Jan-25 07:41S 32°53' E 151°45'0 0.0
2018-Jan-25 07:29S 32°53' E 151°45'0 0.0
2018-Jan-25 06:59S 32°53' E 151°45'0 0.0
2018-Jan-25 06:26S 32°53' E 151°45'0 0.0
2018-Jan-25 05:59S 32°53' E 151°45'0 0.0
2018-Jan-25 05:29S 32°53' E 151°45'0 0.0
2018-Jan-25 04:59S 32°53' E 151°45'0 0.0
2018-Jan-25 04:23S 32°53' E 151°45'0 0.0
2018-Jan-25 03:56S 32°53' E 151°45'0 0.0
2018-Jan-25 03:29S 32°53' E 151°45'0 0.0
2018-Jan-25 02:59S 32°53' E 151°45'0 0.0
2018-Jan-25 02:29S 32°53' E 151°45'0 0.0
2018-Jan-25 01:59S 32°53' E 151°45'0 0.0
2018-Jan-25 01:29S 32°53' E 151°45'0 0.0
2018-Jan-25 00:47S 32°53' E 151°45'0 0.0
2018-Jan-25 00:29S 32°53' E 151°45'0 0.0
2018-Jan-24 23:59S 32°53' E 151°45'0 0.0
2018-Jan-24 23:30S 32°53' E 151°45'1 2.1
2018-Jan-24 23:00S 32°54' E 151°46'2 4.0
2018-Jan-24 22:24S 32°55' E 151°49'1 3.5
2018-Jan-24 22:01S 32°55' E 151°50'4 8.9
2018-Jan-24 21:30S 32°59' E 151°53'2 3.9
2018-Jan-24 21:00S 33°01' E 151°53'3 6.1
2018-Jan-24 20:30S 33°04' E 151°53'4 7.4
2018-Jan-24 20:00S 33°08' E 151°52'4 7.1
2018-Jan-24 19:30S 33°11' E 151°51'5 7.5
2018-Jan-24 18:51S 33°16' E 151°50'3 9.4
2018-Jan-24 18:30S 33°19' E 151°49'510.3
2018-Jan-24 18:00S 33°24' E 151°49'1 0.7
2018-Jan-24 17:15S 33°25' E 151°48'1 2.0
2018-Jan-24 16:59S 33°24' E 151°48'1 1.9
2018-Jan-24 16:22S 33°23' E 151°49'1 1.9
2018-Jan-24 15:55S 33°22' E 151°49'2 1.9
2018-Jan-24 14:59S 33°21' E 151°50'2 1.9
2018-Jan-24 14:11S 33°19' E 151°51'2 2.0
2018-Jan-24 13:13S 33°17' E 151°52'1 2.1
2018-Jan-24 12:59S 33°17' E 151°52'1 1.8
2018-Jan-24 12:28S 33°16' E 151°53'1 1.9
2018-Jan-24 11:57S 33°16' E 151°54'1 1.8
2018-Jan-24 11:21S 33°15' E 151°54'1 1.8
2018-Jan-24 10:38S 33°14' E 151°55'0 1.7
2018-Jan-24 10:29S 33°13' E 151°55'1 1.9
2018-Jan-24 10:00S 33°13' E 151°56'1 2.1
2018-Jan-24 09:30S 33°12' E 151°56'1 2.2
2018-Jan-24 09:00S 33°10' E 151°56'1 2.4
2018-Jan-24 08:30S 33°09' E 151°57'1 2.4
2018-Jan-24 08:00S 33°08' E 151°57'1 2.4
2018-Jan-24 07:30S 33°07' E 151°58'1 2.4
2018-Jan-24 07:00S 33°06' E 151°59'1 2.6
2018-Jan-24 06:30S 33°05' E 151°60'1 2.3
2018-Jan-24 06:00S 33°04' E 151°60'4 8.0
2018-Jan-24 05:30S 33°02' E 151°56'4 7.9
2018-Jan-24 05:00S 32°58' E 151°58'4 8.8
2018-Jan-24 04:30S 32°57' E 152°03'611.1
2018-Jan-24 04:00S 32°56' E 152°09'612.4
2018-Jan-24 03:30S 32°54' E 152°17'612.4
2018-Jan-24 03:01S 32°51' E 152°23'714.2
2018-Jan-24 02:31S 32°45' E 152°28'713.9
2018-Jan-24 02:01S 32°40' E 152°33'713.9
2018-Jan-24 01:30S 32°34' E 152°38'713.6
2018-Jan-24 01:00S 32°29' E 152°43'713.4
2018-Jan-24 00:30S 32°23' E 152°46'714.2
2018-Jan-24 00:00S 32°16' E 152°48'814.4
2018-Jan-23 23:27S 32°08' E 152°51'814.7
2018-Jan-23 22:55S 32°01' E 152°54'1515.0
2018-Jan-23 21:56S 31°47' E 152°60'19314.9
2018-Jan-23 08:56S 28°38' E 153°47'715.6
2018-Jan-23 08:30S 28°32' E 153°49'815.7
2018-Jan-23 08:00S 28°24' E 153°49'815.3
2018-Jan-23 07:30S 28°16' E 153°50'815.4
2018-Jan-23 07:00S 28°08' E 153°51'815.3
2018-Jan-23 06:30S 28°01' E 153°52'815.2
2018-Jan-23 06:00S 27°53' E 153°52'714.9
2018-Jan-23 05:30S 27°46' E 153°53'714.6
2018-Jan-23 05:00S 27°39' E 153°54'914.2
2018-Jan-23 04:24S 27°30' E 153°54'613.8
2018-Jan-23 03:56S 27°23' E 153°55'1013.5
2018-Jan-23 03:11S 27°13' E 153°56'613.9
2018-Jan-23 02:47S 27°08' E 153°56'1513.8
2018-Jan-23 01:44S 26°53' E 153°57'613.9
2018-Jan-23 01:18S 26°47' E 153°57'713.7
2018-Jan-23 00:48S 26°40' E 153°57'  

Dump ship's entire track history